createdAt,value
2019-02-15T00:00:32.002Z,94.13
2019-02-15T00:03:01.287Z,94.17
2019-02-15T00:05:30.454Z,94.29
2019-02-15T00:07:59.576Z,95.02
2019-02-15T00:10:28.680Z,94.94
2019-02-15T00:12:57.952Z,94.74
2019-02-15T00:15:27.297Z,94.65
2019-02-15T00:18:15.348Z,94.45
2019-02-15T00:21:05.563Z,94.33
2019-02-15T00:23:34.660Z,94.14
2019-02-15T00:26:04.168Z,94.17
2019-02-15T00:28:33.310Z,94.03
2019-02-15T00:31:03.345Z,93.94
2019-02-15T00:33:32.484Z,93.90
2019-02-15T00:36:01.902Z,93.75
2019-02-15T00:38:31.156Z,93.75
2019-02-15T00:41:00.363Z,94.13
2019-02-15T00:43:29.723Z,94.33
2019-02-15T00:46:20.986Z,94.30
2019-02-15T00:48:51.183Z,94.10
2019-02-15T00:51:39.451Z,94.13
2019-02-15T00:54:14.499Z,94.73
2019-02-15T00:57:10.174Z,95.09
2019-02-15T01:00:00.358Z,94.55
2019-02-15T01:02:40.631Z,94.38
2019-02-15T01:05:18.501Z,94.47
2019-02-15T01:07:57.491Z,94.84
2019-02-15T01:10:48.113Z,94.86
2019-02-15T01:13:20.295Z,95.12
2019-02-15T01:15:49.394Z,95.40
2019-02-15T01:18:18.665Z,95.92
2019-02-15T01:20:47.824Z,95.91
2019-02-15T01:23:17.209Z,95.78
2019-02-15T01:26:11.089Z,95.55
2019-02-15T01:28:59.225Z,95.49
2019-02-15T01:31:41.113Z,95.83
2019-02-15T01:34:28.406Z,95.52
2019-02-15T01:37:35.130Z,95.41
2019-02-15T01:40:26.763Z,95.47
2019-02-15T01:43:14.660Z,95.61
2019-02-15T01:46:09.160Z,95.14
2019-02-15T01:48:38.496Z,94.83
2019-02-15T01:51:07.686Z,94.92
2019-02-15T01:53:37.065Z,94.90
2019-02-15T01:56:06.234Z,95.06
2019-02-15T01:58:35.326Z,95.03
2019-02-15T02:01:04.638Z,95.45
2019-02-15T02:03:34.131Z,95.47
2019-02-15T02:06:03.244Z,95.89
2019-02-15T02:08:32.561Z,96.06
2019-02-15T02:11:01.721Z,95.77
2019-02-15T02:13:31.048Z,95.23
2019-02-15T02:16:00.210Z,95.41
2019-02-15T02:18:29.268Z,95.44
2019-02-15T02:20:58.333Z,96.08
2019-02-15T02:23:27.638Z,96.20
2019-02-15T02:25:56.838Z,96.20
2019-02-15T02:28:25.944Z,95.73
2019-02-15T02:30:55.303Z,95.65
2019-02-15T02:33:24.643Z,95.25
2019-02-15T02:35:53.727Z,95.65
2019-02-15T02:38:23.018Z,95.96
2019-02-15T02:40:52.113Z,95.59
2019-02-15T02:43:21.440Z,95.55
2019-02-15T02:45:50.621Z,95.39
2019-02-15T02:48:19.680Z,95.56
2019-02-15T02:50:48.987Z,95.77
2019-02-15T02:53:18.622Z,95.85
2019-02-15T02:55:47.703Z,95.78
2019-02-15T02:58:16.886Z,95.97
2019-02-15T03:00:45.986Z,96.06
2019-02-15T03:03:15.090Z,95.58
2019-02-15T03:05:46.262Z,95.30
2019-02-15T03:08:15.457Z,95.70
2019-02-15T03:10:44.705Z,96.13
2019-02-15T03:13:13.838Z,96.30
2019-02-15T03:15:43.173Z,96.14
2019-02-15T03:18:12.585Z,95.84
2019-02-15T03:20:41.768Z,95.22
2019-02-15T03:23:10.865Z,95.93
2019-02-15T03:25:39.975Z,96.68
2019-02-15T03:28:09.248Z,96.72
2019-02-15T03:30:38.555Z,97.34
2019-02-15T03:33:07.678Z,97.43
2019-02-15T03:35:38.899Z,97.41
2019-02-15T03:38:14.856Z,97.97
2019-02-15T03:40:46.944Z,98.03
2019-02-15T03:43:16.436Z,98.16
2019-02-15T03:45:46.470Z,98.35
2019-02-15T03:48:15.771Z,98.28
2019-02-15T03:50:45.167Z,98.32
2019-02-15T03:53:14.290Z,98.38
2019-02-15T03:55:43.414Z,97.82
2019-02-15T03:58:12.655Z,97.02
2019-02-15T04:00:41.920Z,96.93
2019-02-15T04:03:11.085Z,96.98
2019-02-15T04:05:40.492Z,96.83
2019-02-15T04:08:09.586Z,96.27
2019-02-15T04:10:38.784Z,96.46
2019-02-15T04:13:08.061Z,96.33
2019-02-15T04:15:37.325Z,96.38
2019-02-15T04:18:06.558Z,96.36
2019-02-15T04:20:35.828Z,96.45
2019-02-15T04:23:04.887Z,96.25
2019-02-15T04:25:34.022Z,96.02
2019-02-15T04:28:03.263Z,96.83
2019-02-15T04:30:32.459Z,97.05
2019-02-15T04:33:01.585Z,96.73
2019-02-15T04:35:30.944Z,96.49
2019-02-15T04:38:00.068Z,96.36
2019-02-15T04:40:29.582Z,96.19
2019-02-15T04:42:58.697Z,96.47
2019-02-15T04:45:27.810Z,96.41
2019-02-15T04:47:57.215Z,97.21
2019-02-15T04:50:26.398Z,97.42
2019-02-15T04:52:55.518Z,97.66
2019-02-15T04:55:24.822Z,97.92
2019-02-15T04:57:53.935Z,97.70
2019-02-15T05:00:23.196Z,96.93
2019-02-15T05:02:52.344Z,96.76
2019-02-15T05:05:21.441Z,96.22
2019-02-15T05:07:50.919Z,96.13
2019-02-15T05:10:20.114Z,96.20
2019-02-15T05:12:49.275Z,96.59
2019-02-15T05:15:18.646Z,96.78
2019-02-15T05:17:47.765Z,96.68
2019-02-15T05:20:16.975Z,96.43
2019-02-15T05:22:46.105Z,96.41
2019-02-15T05:25:15.399Z,96.45
2019-02-15T05:27:44.657Z,96.05
2019-02-15T05:30:14.065Z,95.82
2019-02-15T05:32:43.145Z,95.85
2019-02-15T05:35:12.425Z,96.11
2019-02-15T05:37:41.546Z,96.35
2019-02-15T05:40:10.662Z,96.08
2019-02-15T05:42:39.908Z,96.39
2019-02-15T05:45:09.428Z,96.28
2019-02-15T05:47:38.568Z,96.06
2019-02-15T05:50:07.878Z,96.12
2019-02-15T05:52:36.991Z,95.86
2019-02-15T05:55:06.414Z,95.69
2019-02-15T05:57:35.480Z,95.56
2019-02-15T06:00:05.017Z,95.39
2019-02-15T06:02:34.555Z,95.17
2019-02-15T06:05:03.845Z,95.49
2019-02-15T06:07:33.129Z,95.23
2019-02-15T06:10:02.436Z,95.30
2019-02-15T06:12:31.580Z,95.04
2019-02-15T06:15:00.731Z,95.02
2019-02-15T06:17:29.815Z,95.17
2019-02-15T06:19:59.213Z,95.41
2019-02-15T06:22:28.513Z,95.30
2019-02-15T06:24:57.648Z,95.17
2019-02-15T06:27:26.770Z,94.92
2019-02-15T06:29:56.115Z,94.70
2019-02-15T06:32:25.545Z,95.11
2019-02-15T06:34:54.657Z,95.00
2019-02-15T06:37:23.771Z,95.19
2019-02-15T06:39:54.953Z,95.72
2019-02-15T06:42:24.169Z,95.84
2019-02-15T06:44:53.402Z,95.73
2019-02-15T06:47:22.945Z,95.83
2019-02-15T06:49:52.035Z,95.56
2019-02-15T06:52:21.187Z,95.58
2019-02-15T06:54:50.519Z,95.40
2019-02-15T06:57:19.621Z,94.86
2019-02-15T07:00:10.662Z,94.33
2019-02-15T07:02:58.851Z,93.49
2019-02-15T07:05:28.133Z,93.01
2019-02-15T07:07:57.426Z,93.06
2019-02-15T07:10:26.472Z,93.19
2019-02-15T07:12:55.794Z,92.08
2019-02-15T07:15:33.129Z,89.59
2019-02-15T07:17:56.121Z,88.13
2019-02-15T07:20:25.462Z,86.70
2019-02-15T07:22:54.675Z,85.71
2019-02-15T07:25:23.851Z,84.64
2019-02-15T07:27:52.979Z,83.75
2019-02-15T07:30:22.263Z,82.53
2019-02-15T07:32:51.591Z,81.35
2019-02-15T07:35:20.713Z,79.48
2019-02-15T07:37:50.062Z,79.48
2019-02-15T07:40:19.154Z,79.76
2019-02-15T07:42:48.437Z,79.23
2019-02-15T07:45:18.083Z,79.38
2019-02-15T07:47:47.211Z,78.82
2019-02-15T07:50:16.252Z,79.00
2019-02-15T07:52:45.447Z,78.14
2019-02-15T07:55:14.648Z,77.88
2019-02-15T07:57:43.833Z,77.98
2019-02-15T08:00:13.980Z,76.69
2019-02-15T08:02:43.060Z,75.03
2019-02-15T08:05:12.226Z,75.03
2019-02-15T08:07:41.656Z,74.69
2019-02-15T08:10:11.383Z,73.71
2019-02-15T08:12:40.454Z,72.67
2019-02-15T08:15:10.213Z,72.25
2019-02-15T08:17:39.297Z,71.43
2019-02-15T08:20:09.930Z,70.82
2019-02-15T08:22:39.024Z,70.22
2019-02-15T08:25:08.291Z,69.48
2019-02-15T08:27:37.421Z,69.35
2019-02-15T08:30:07.652Z,69.50
2019-02-15T08:32:36.738Z,69.08
2019-02-15T08:35:06.740Z,69.58
2019-02-15T08:37:36.228Z,69.73
2019-02-15T08:40:06.295Z,69.14
2019-02-15T08:42:35.789Z,68.62
2019-02-15T08:45:05.796Z,68.06
2019-02-15T08:47:34.988Z,68.21
2019-02-15T08:50:04.259Z,66.84
2019-02-15T08:52:33.398Z,66.92
2019-02-15T08:55:02.870Z,67.23
2019-02-15T08:57:32.033Z,67.48
2019-02-15T09:00:02.144Z,66.52
2019-02-15T09:02:31.505Z,65.77
2019-02-15T09:05:02.121Z,65.89
2019-02-15T09:07:32.591Z,65.46
2019-02-15T09:10:02.299Z,63.72
2019-02-15T09:12:31.383Z,63.71
2019-02-15T09:15:00.579Z,64.63
2019-02-15T09:17:29.678Z,64.14
2019-02-15T09:19:58.741Z,63.86
2019-02-15T09:22:28.169Z,63.80
2019-02-15T09:24:57.264Z,63.73
2019-02-15T09:27:38.411Z,63.55
2019-02-15T09:30:09.408Z,63.35
2019-02-15T09:32:40.369Z,62.77
2019-02-15T09:35:10.227Z,62.50
2019-02-15T09:37:39.411Z,62.78
2019-02-15T09:40:09.346Z,63.02
2019-02-15T09:42:38.554Z,62.26
2019-02-15T09:45:10.462Z,61.92
2019-02-15T09:47:39.814Z,61.88
2019-02-15T09:50:10.203Z,61.59
2019-02-15T09:52:40.149Z,61.02
2019-02-15T09:55:09.755Z,61.24
2019-02-15T09:57:38.841Z,60.72
2019-02-15T10:00:08.299Z,60.94
2019-02-15T10:02:37.383Z,60.45
2019-02-15T10:05:06.498Z,60.29
2019-02-15T10:07:35.605Z,59.15
2019-02-15T10:10:04.716Z,59.46
2019-02-15T10:12:36.030Z,58.63
2019-02-15T10:15:05.377Z,58.50
2019-02-15T10:17:34.383Z,59.23
2019-02-15T10:20:03.451Z,59.57
2019-02-15T10:22:32.734Z,58.90
2019-02-15T10:25:02.207Z,58.85
2019-02-15T10:27:31.263Z,57.65
2019-02-15T10:30:02.496Z,57.69
2019-02-15T10:32:31.463Z,57.80
2019-02-15T10:35:00.759Z,58.02
2019-02-15T10:37:30.195Z,58.40
2019-02-15T10:39:59.337Z,57.32
2019-02-15T10:42:30.284Z,57.89
2019-02-15T10:44:59.605Z,57.14
2019-02-15T10:47:28.924Z,56.90
2019-02-15T10:49:58.044Z,55.95
2019-02-15T10:52:27.175Z,56.42
2019-02-15T10:54:56.511Z,56.09
2019-02-15T10:57:25.907Z,56.23
2019-02-15T10:59:54.971Z,55.10
2019-02-15T11:02:26.095Z,55.86
2019-02-15T11:04:55.275Z,54.06
2019-02-15T11:07:24.506Z,54.74
2019-02-15T11:09:56.030Z,53.94
2019-02-15T11:12:25.238Z,54.86
2019-02-15T11:14:54.299Z,54.70
2019-02-15T11:17:24.698Z,53.76
2019-02-15T11:19:53.804Z,53.51
2019-02-15T11:22:22.902Z,53.21
2019-02-15T11:24:51.999Z,53.06
2019-02-15T11:27:21.218Z,52.17
2019-02-15T11:29:50.560Z,51.86
2019-02-15T11:32:19.849Z,52.79
2019-02-15T11:34:48.979Z,52.21
2019-02-15T11:37:18.053Z,52.36
2019-02-15T11:39:47.328Z,52.50
2019-02-15T11:42:16.691Z,52.20
2019-02-15T11:44:45.793Z,51.98
2019-02-15T11:47:15.072Z,51.79
2019-02-15T11:49:44.254Z,50.64
2019-02-15T11:52:13.454Z,50.66
2019-02-15T11:54:42.768Z,51.20
2019-02-15T11:57:11.927Z,50.07
2019-02-15T11:59:41.141Z,50.47
2019-02-15T12:02:10.248Z,49.69
2019-02-15T12:04:39.530Z,49.03
2019-02-15T12:07:08.859Z,48.91
2019-02-15T12:09:38.376Z,49.14
2019-02-15T12:12:10.888Z,49.75
2019-02-15T12:14:38.732Z,48.80
2019-02-15T12:17:08.186Z,49.15
2019-02-15T12:19:37.290Z,48.10
2019-02-15T12:22:06.503Z,48.02
2019-02-15T12:24:35.536Z,48.43
2019-02-15T12:27:04.645Z,47.92
2019-02-15T12:29:33.884Z,47.64
2019-02-15T12:32:03.033Z,47.73
2019-02-15T12:34:32.189Z,47.45
2019-02-15T12:37:01.408Z,47.38
2019-02-15T12:39:31.574Z,45.96
2019-02-15T12:42:00.821Z,45.99
2019-02-15T12:44:30.061Z,45.48
2019-02-15T12:46:59.346Z,45.23
2019-02-15T12:49:28.431Z,44.90
2019-02-15T12:51:57.843Z,44.55
2019-02-15T12:54:28.205Z,44.38
2019-02-15T12:56:57.380Z,44.06
2019-02-15T12:59:26.476Z,44.10
2019-02-15T13:01:55.570Z,43.95
2019-02-15T13:04:24.696Z,43.49
2019-02-15T13:06:54.522Z,43.84
2019-02-15T13:09:23.771Z,43.69
2019-02-15T13:11:52.836Z,43.53
2019-02-15T13:14:21.964Z,44.24
2019-02-15T13:16:51.112Z,43.46
2019-02-15T13:19:20.274Z,44.03
2019-02-15T13:21:50.224Z,44.25
2019-02-15T13:24:19.578Z,43.93
2019-02-15T13:26:52.665Z,43.93
2019-02-15T13:29:21.829Z,44.01
2019-02-15T13:31:51.195Z,44.60
2019-02-15T13:34:20.590Z,44.03
2019-02-15T13:36:51.637Z,43.87
2019-02-15T13:39:20.826Z,44.48
2019-02-15T13:41:49.947Z,44.51
2019-02-15T13:44:19.123Z,44.51
2019-02-15T13:46:48.561Z,44.18
2019-02-15T13:49:17.748Z,44.52
2019-02-15T13:51:47.012Z,44.33
2019-02-15T13:54:16.319Z,44.28
2019-02-15T13:56:45.560Z,43.90
2019-02-15T13:59:14.739Z,44.21
2019-02-15T14:01:45.176Z,44.42
2019-02-15T14:04:14.309Z,43.96
2019-02-15T14:06:45.555Z,44.25
2019-02-15T14:09:14.873Z,44.54
2019-02-15T14:11:44.128Z,44.68
2019-02-15T14:14:13.267Z,43.69
2019-02-15T14:16:42.380Z,43.26
2019-02-15T14:19:11.565Z,43.09
2019-02-15T14:21:44.470Z,42.96
2019-02-15T14:24:12.548Z,43.65
2019-02-15T14:26:41.831Z,43.17
2019-02-15T14:29:11.045Z,43.42
2019-02-15T14:31:40.449Z,42.97
2019-02-15T14:34:09.840Z,42.91
2019-02-15T14:36:39.111Z,42.21
2019-02-15T14:39:11.824Z,42.86
2019-02-15T14:41:43.229Z,43.27
2019-02-15T14:44:12.299Z,40.51
2019-02-15T14:46:41.569Z,37.45
2019-02-15T14:49:10.727Z,36.98
2019-02-15T14:51:39.879Z,36.70
2019-02-15T14:54:10.258Z,36.89
2019-02-15T14:56:39.673Z,36.41
2019-02-15T14:59:08.876Z,35.92
2019-02-15T15:01:38.027Z,35.92
2019-02-15T15:04:07.074Z,36.40
2019-02-15T15:06:36.182Z,35.81
2019-02-15T15:09:06.160Z,35.92
2019-02-15T15:11:37.358Z,35.92
2019-02-15T15:14:06.725Z,35.57
2019-02-15T15:16:35.943Z,35.83
2019-02-15T15:19:05.046Z,35.32
2019-02-15T15:21:35.020Z,35.71
2019-02-15T15:24:04.186Z,35.77
2019-02-15T15:26:33.263Z,34.98
2019-02-15T15:29:02.387Z,35.10
2019-02-15T15:31:31.829Z,34.60
2019-02-15T15:34:01.184Z,35.38
2019-02-15T15:36:30.610Z,34.54
2019-02-15T15:38:59.952Z,34.21
2019-02-15T15:41:29.223Z,34.88
2019-02-15T15:43:58.318Z,35.49
2019-02-15T15:46:27.816Z,33.84
2019-02-15T15:48:56.925Z,34.19
2019-02-15T15:51:26.153Z,33.39
2019-02-15T15:53:55.228Z,33.99
2019-02-15T15:56:24.417Z,33.74
2019-02-15T15:58:53.929Z,33.81
2019-02-15T16:01:23.458Z,33.84
2019-02-15T16:03:52.557Z,34.01
2019-02-15T16:06:24.536Z,34.25
2019-02-15T16:08:52.980Z,33.63
2019-02-15T16:11:22.251Z,33.80
2019-02-15T16:13:51.969Z,34.33
2019-02-15T16:16:21.660Z,35.13
2019-02-15T16:18:50.888Z,35.55
2019-02-15T16:21:22.131Z,36.75
2019-02-15T16:23:51.284Z,36.82
2019-02-15T16:26:20.384Z,38.01
2019-02-15T16:28:49.609Z,37.46
2019-02-15T16:31:18.865Z,38.56
2019-02-15T16:33:47.990Z,38.04
2019-02-15T16:36:17.484Z,38.23
2019-02-15T16:38:46.628Z,38.69
2019-02-15T16:41:15.885Z,38.01
2019-02-15T16:43:45.095Z,38.03
2019-02-15T16:46:14.307Z,38.56
2019-02-15T16:48:43.456Z,38.83
2019-02-15T16:51:12.583Z,39.28
2019-02-15T16:53:41.865Z,39.71
2019-02-15T16:56:11.095Z,40.16
2019-02-15T16:58:40.354Z,40.16
2019-02-15T17:01:09.665Z,40.63
2019-02-15T17:03:38.912Z,41.03
2019-02-15T17:06:08.028Z,41.46
2019-02-15T17:08:40.026Z,41.77
2019-02-15T17:11:09.367Z,42.39
2019-02-15T17:13:38.468Z,42.68
2019-02-15T17:16:07.663Z,43.19
2019-02-15T17:18:36.973Z,43.88
2019-02-15T17:21:06.045Z,44.24
2019-02-15T17:23:35.147Z,45.18
2019-02-15T17:26:04.456Z,46.35
2019-02-15T17:28:33.657Z,47.29
2019-02-15T17:31:02.711Z,48.09
2019-02-15T17:33:32.011Z,49.16
2019-02-15T17:36:01.123Z,50.25
2019-02-15T17:38:31.730Z,51.05
2019-02-15T17:41:00.777Z,51.87
2019-02-15T17:43:29.844Z,52.86
2019-02-15T17:45:58.934Z,54.43
2019-02-15T17:48:28.240Z,55.75
2019-02-15T17:50:57.756Z,56.88
2019-02-15T17:53:26.866Z,58.02
2019-02-15T17:55:56.057Z,58.59
2019-02-15T17:58:25.273Z,59.46
2019-02-15T18:00:54.565Z,60.21
2019-02-15T18:03:23.638Z,61.37
2019-02-15T18:05:54.367Z,61.80
2019-02-15T18:08:23.606Z,62.12
2019-02-15T18:10:52.713Z,62.78
2019-02-15T18:13:21.845Z,63.21
2019-02-15T18:15:50.957Z,63.90
2019-02-15T18:18:20.013Z,64.47
2019-02-15T18:20:49.152Z,65.50
2019-02-15T18:23:18.477Z,65.98
2019-02-15T18:25:47.755Z,65.80
2019-02-15T18:28:16.940Z,65.69
2019-02-15T18:30:46.078Z,65.89
2019-02-15T18:33:15.137Z,66.03
2019-02-15T18:35:44.533Z,66.43
2019-02-15T18:38:13.619Z,67.08
2019-02-15T18:40:42.946Z,67.55
2019-02-15T18:43:12.077Z,67.92
2019-02-15T18:45:41.309Z,68.18
2019-02-15T18:48:10.479Z,68.50
2019-02-15T18:50:39.713Z,68.71
2019-02-15T18:53:09.146Z,69.43
2019-02-15T18:55:38.215Z,69.79
2019-02-15T18:58:07.437Z,70.27
2019-02-15T19:00:36.756Z,70.57
2019-02-15T19:03:05.966Z,71.01
2019-02-15T19:05:35.261Z,71.70
2019-02-15T19:08:04.572Z,72.32
2019-02-15T19:10:34.145Z,72.80
2019-02-15T19:13:03.691Z,73.54
2019-02-15T19:15:33.143Z,73.68
2019-02-15T19:18:02.403Z,74.13
2019-02-15T19:20:31.431Z,73.91
2019-02-15T19:23:00.573Z,74.33
2019-02-15T19:25:29.747Z,74.50
2019-02-15T19:27:59.120Z,75.15
2019-02-15T19:30:29.154Z,75.04
2019-02-15T19:32:58.610Z,75.29
2019-02-15T19:35:27.706Z,75.39
2019-02-15T19:37:58.064Z,75.50
2019-02-15T19:40:27.206Z,75.76
2019-02-15T19:42:57.001Z,75.65
2019-02-15T19:45:26.427Z,75.57
2019-02-15T19:47:55.769Z,75.53
2019-02-15T19:50:25.073Z,75.63
2019-02-15T19:52:54.454Z,76.34
2019-02-15T19:55:23.571Z,76.72
2019-02-15T19:57:52.995Z,77.23
2019-02-15T20:00:22.345Z,77.72
2019-02-15T20:02:51.611Z,78.29
2019-02-15T20:05:20.722Z,77.95
2019-02-15T20:07:49.901Z,77.95
2019-02-15T20:10:20.403Z,77.33
2019-02-15T20:12:49.456Z,77.77
2019-02-15T20:15:18.833Z,78.30
2019-02-15T20:17:48.339Z,78.63
2019-02-15T20:20:19.527Z,78.89
2019-02-15T20:22:48.893Z,78.97
2019-02-15T20:25:17.995Z,79.00
2019-02-15T20:27:47.247Z,79.06
2019-02-15T20:30:17.750Z,79.43
2019-02-15T20:32:46.820Z,79.63
2019-02-15T20:35:15.933Z,79.77
2019-02-15T20:37:45.247Z,79.84
2019-02-15T20:40:14.686Z,79.93
2019-02-15T20:42:43.797Z,79.28
2019-02-15T20:45:15.584Z,79.40
2019-02-15T20:47:44.848Z,79.38
2019-02-15T20:50:14.327Z,79.62
2019-02-15T20:52:43.626Z,80.79
2019-02-15T20:55:14.691Z,81.38
2019-02-15T20:57:44.020Z,81.59
2019-02-15T21:00:18.225Z,81.44
2019-02-15T21:02:47.293Z,81.50
2019-02-15T21:05:16.390Z,81.53
2019-02-15T21:07:45.499Z,81.74
2019-02-15T21:10:14.931Z,82.00
2019-02-15T21:12:44.121Z,82.17
2019-02-15T21:15:15.403Z,82.32
2019-02-15T21:17:44.502Z,82.28
2019-02-15T21:20:13.592Z,82.69
2019-02-15T21:22:42.703Z,82.69
2019-02-15T21:25:12.816Z,82.77
2019-02-15T21:27:42.067Z,82.87
2019-02-15T21:30:12.976Z,82.83
2019-02-15T21:32:42.062Z,83.09
2019-02-15T21:35:11.157Z,83.09
2019-02-15T21:37:40.298Z,82.69
2019-02-15T21:40:11.246Z,82.84
2019-02-15T21:42:40.520Z,83.02
2019-02-15T21:45:10.207Z,83.25
2019-02-15T21:47:39.451Z,83.85
2019-02-15T21:50:16.742Z,83.85
2019-02-15T21:52:44.287Z,83.99
2019-02-15T21:55:11.708Z,83.64
2019-02-15T21:57:40.917Z,83.46
2019-02-15T22:00:12.922Z,83.46
2019-02-15T22:02:42.074Z,83.67
2019-02-15T22:05:12.867Z,83.67
2019-02-15T22:07:41.947Z,83.84
2019-02-15T22:10:13.206Z,84.06
2019-02-15T22:12:42.748Z,84.77
2019-02-15T22:15:12.384Z,85.34
2019-02-15T22:17:41.609Z,85.22
2019-02-15T22:20:13.337Z,85.22
2019-02-15T22:22:43.908Z,85.64
2019-02-15T22:25:13.083Z,85.90
2019-02-15T22:27:42.202Z,85.90
2019-02-15T22:30:12.714Z,86.05
2019-02-15T22:32:42.698Z,86.02
2019-02-15T22:35:12.795Z,85.95
2019-02-15T22:37:41.909Z,85.90
2019-02-15T22:40:37.775Z,85.78
2019-02-15T22:43:18.825Z,85.35
2019-02-15T22:45:48.461Z,85.35
2019-02-15T22:48:17.889Z,85.33
2019-02-15T22:50:47.145Z,85.33
2019-02-15T22:53:16.213Z,85.42
2019-02-15T22:55:45.463Z,85.41
2019-02-15T22:58:14.584Z,85.41
2019-02-15T23:01:07.385Z,86.25
2019-02-15T23:03:36.467Z,86.25
2019-02-15T23:06:05.824Z,86.01
2019-02-15T23:08:34.933Z,85.74
2019-02-15T23:11:04.217Z,86.02
2019-02-15T23:13:33.350Z,86.14
2019-02-15T23:16:02.580Z,86.08
2019-02-15T23:18:31.928Z,86.22
2019-02-15T23:21:00.980Z,86.29
2019-02-15T23:23:30.204Z,86.44
2019-02-15T23:25:59.594Z,86.55
2019-02-15T23:28:28.701Z,86.55
2019-02-15T23:30:57.917Z,86.69
2019-02-15T23:33:27.120Z,86.44
2019-02-15T23:35:56.428Z,87.53
2019-02-15T23:38:25.654Z,87.53
2019-02-15T23:40:54.758Z,88.00
2019-02-15T23:43:24.305Z,87.67
2019-02-15T23:45:53.462Z,87.72
2019-02-15T23:48:24.440Z,87.21
2019-02-15T23:50:55.294Z,87.84
2019-02-15T23:53:24.788Z,88.48
2019-02-15T23:55:54.212Z,88.32
2019-02-15T23:58:23.260Z,88.07
